createdAt,value
2022-10-01T00:03:34.049Z,1012.03
2022-10-01T00:13:41.057Z,1011.98
2022-10-01T00:23:47.532Z,1011.85
2022-10-01T00:33:54.568Z,1011.79
2022-10-01T00:44:01.868Z,1011.76
2022-10-01T00:54:08.808Z,1011.74
2022-10-01T01:04:15.435Z,1011.63
2022-10-01T01:14:23.456Z,1011.57
2022-10-01T01:24:30.359Z,1011.59
2022-10-01T01:34:37.221Z,1011.49
2022-10-01T01:44:44.523Z,1011.40
2022-10-01T01:54:51.487Z,1011.26
2022-10-01T02:04:57.805Z,1011.18
2022-10-01T02:15:04.817Z,1011.22
2022-10-01T02:25:11.336Z,1011.17
2022-10-01T02:35:18.118Z,1011.23
2022-10-01T02:45:25.468Z,1011.18
2022-10-01T02:56:56.024Z,1011.10
2022-10-01T03:07:02.467Z,1011.05
2022-10-01T03:17:09.780Z,1010.93
2022-10-01T03:27:16.713Z,1010.75
2022-10-01T03:37:23.635Z,1010.71
2022-10-01T03:47:30.772Z,1010.54
2022-10-01T03:57:37.570Z,1010.55
2022-10-01T04:07:44.811Z,1010.43
2022-10-01T04:17:51.868Z,1010.36
2022-10-01T04:27:59.013Z,1010.32
2022-10-01T04:38:06.206Z,1010.27
2022-10-01T04:48:13.160Z,1010.25
2022-10-01T04:58:19.873Z,1010.11
2022-10-01T05:08:26.375Z,1010.02
2022-10-01T05:18:33.409Z,1010.06
2022-10-01T05:28:40.518Z,1010.02
2022-10-01T05:38:47.789Z,1009.98
2022-10-01T05:48:53.787Z,1009.82
2022-10-01T05:59:00.741Z,1009.70
2022-10-01T06:09:07.524Z,1009.51
2022-10-01T06:19:13.990Z,1009.44
2022-10-01T06:29:20.990Z,1009.23
2022-10-01T06:39:28.544Z,1009.12
2022-10-01T06:49:36.154Z,1009.11
2022-10-01T06:59:43.263Z,1008.99
2022-10-01T07:09:49.309Z,1008.86
2022-10-01T07:19:56.038Z,1008.70
2022-10-01T07:30:02.084Z,1008.58
2022-10-01T07:40:08.787Z,1008.46
2022-10-01T07:50:14.854Z,1008.39
2022-10-01T08:00:21.777Z,1008.19
2022-10-01T08:10:28.710Z,1007.96
2022-10-01T08:20:34.998Z,1007.86
2022-10-01T08:30:41.130Z,1007.76
2022-10-01T08:40:47.339Z,1007.78
2022-10-01T08:50:53.637Z,1007.69
2022-10-01T09:01:00.248Z,1007.49
2022-10-01T09:11:06.752Z,1007.33
2022-10-01T09:21:13.175Z,1007.13
2022-10-01T09:31:19.808Z,1006.93
2022-10-01T09:41:26.606Z,1006.83
2022-10-01T09:51:34.901Z,1006.76
2022-10-01T10:01:42.936Z,1006.57
2022-10-01T10:11:49.670Z,1006.50
2022-10-01T10:21:56.030Z,1006.39
2022-10-01T10:32:02.910Z,1006.31
2022-10-01T10:42:09.944Z,1006.40
2022-10-01T10:52:17.334Z,1006.27
2022-10-01T11:02:24.093Z,1006.18
2022-10-01T11:12:30.818Z,1006.17
2022-10-01T11:22:37.752Z,1006.03
2022-10-01T11:32:43.946Z,1005.98
2022-10-01T11:42:50.652Z,1005.81
2022-10-01T11:52:57.154Z,1005.80
2022-10-01T12:03:03.391Z,1005.78
2022-10-01T12:13:10.057Z,1005.85
2022-10-01T12:23:16.977Z,1005.66
2022-10-01T12:33:22.958Z,1005.66
2022-10-01T12:43:29.369Z,1005.68
2022-10-01T12:53:36.227Z,1005.66
2022-10-01T13:03:42.691Z,1005.59
2022-10-01T13:13:49.140Z,1005.57
2022-10-01T13:23:58.064Z,1005.56
2022-10-01T13:34:04.602Z,1005.56
2022-10-01T13:44:10.955Z,1005.48
2022-10-01T13:54:18.816Z,1005.60
2022-10-01T14:04:25.205Z,1005.58
2022-10-01T14:14:31.764Z,1005.51
2022-10-01T14:24:38.387Z,1005.39
2022-10-01T14:34:45.485Z,1005.35
2022-10-01T14:44:51.604Z,1005.38
2022-10-01T14:54:58.090Z,1005.30
2022-10-01T15:05:04.483Z,1005.32
2022-10-01T15:15:10.695Z,1005.33
2022-10-01T15:25:17.332Z,1005.37
2022-10-01T15:35:23.644Z,1005.46
2022-10-01T15:45:30.219Z,1005.56
2022-10-01T15:55:36.377Z,1005.61
2022-10-01T16:05:42.640Z,1005.57
2022-10-01T16:15:49.145Z,1005.61
2022-10-01T16:25:55.318Z,1005.65
2022-10-01T16:36:01.454Z,1005.82
2022-10-01T16:46:07.539Z,1005.90
2022-10-01T16:56:13.737Z,1006.01
2022-10-01T17:06:19.910Z,1006.07
2022-10-01T17:16:26.389Z,1006.14
2022-10-01T17:26:33.005Z,1006.14
2022-10-01T17:36:41.001Z,1006.10
2022-10-01T17:46:47.169Z,1006.08
2022-10-01T17:56:53.762Z,1006.13
2022-10-01T18:07:00.034Z,1006.22
2022-10-01T18:17:06.274Z,1006.42
2022-10-01T18:27:12.386Z,1006.65
2022-10-01T18:37:19.215Z,1006.73
2022-10-01T18:47:25.616Z,1006.89
2022-10-01T18:57:31.911Z,1007.06
2022-10-01T19:07:38.062Z,1007.22
2022-10-01T19:17:44.448Z,1007.54
2022-10-01T19:27:51.111Z,1007.69
2022-10-01T19:37:57.682Z,1007.84
2022-10-01T19:48:03.783Z,1008.00
2022-10-01T19:58:09.769Z,1008.09
2022-10-01T20:08:16.366Z,1008.17
2022-10-01T20:18:27.652Z,1008.44
2022-10-01T20:28:33.696Z,1008.62
2022-10-01T20:38:40.197Z,1008.77
2022-10-01T20:48:46.645Z,1008.96
2022-10-01T20:58:52.724Z,1009.01
2022-10-01T21:08:58.451Z,1009.18
2022-10-01T21:19:04.648Z,1009.44
2022-10-01T21:29:11.294Z,1009.54
2022-10-01T21:39:17.581Z,1009.78
2022-10-01T21:49:24.012Z,1009.87
2022-10-01T21:59:30.367Z,1009.93
2022-10-01T22:09:36.348Z,1010.24
2022-10-01T22:19:43.569Z,1010.41
2022-10-01T22:29:50.151Z,1010.52
2022-10-01T22:39:56.163Z,1010.74
2022-10-01T22:50:02.304Z,1010.90
2022-10-01T23:00:08.939Z,1011.07
2022-10-01T23:10:15.098Z,1011.10
2022-10-01T23:20:21.352Z,1011.32
2022-10-01T23:30:27.558Z,1011.42
2022-10-01T23:40:33.899Z,1011.51
2022-10-01T23:50:40.320Z,1011.68
